Time;durP1;ratioP1;P1;durP2;ratioP2;P2;SDS_P1;SDS_P2;PMS_P1;PMS_P2;Temp;Humidity;BMP_temperature;BMP_pressure;BME280_temperature;BME280_humidity;BME280_pressure;Samples;Min_cycle;Max_cycle;Signal;HPM_P1;HPM_P2
2023/06/28 00:00:15;;;;;;;7.68;3.30;;;20.90;99.90;;;;;;5091868;28;20107;-57
2023/06/28 00:02:41;;;;;;;8.63;3.20;;;20.80;99.90;;;;;;5091584;28;20074;-56
2023/06/28 00:05:07;;;;;;;8.27;3.13;;;20.70;99.90;;;;;;5091870;28;20032;-57
2023/06/28 00:07:33;;;;;;;8.63;3.10;;;20.60;99.90;;;;;;5090890;28;20015;-57
2023/06/28 00:09:59;;;;;;;8.40;3.50;;;20.50;99.90;;;;;;5090029;28;20032;-56
2023/06/28 00:12:28;;;;;;;9.43;3.50;;;20.50;99.90;;;;;;5091605;28;20024;-57
2023/06/28 00:14:54;;;;;;;8.70;3.47;;;20.50;99.90;;;;;;5091590;28;20095;-56
2023/06/28 00:17:27;;;;;;;9.60;3.50;;;20.40;99.90;;;;;;5091569;28;20028;-57
2023/06/28 00:19:58;;;;;;;9.00;3.20;;;20.40;99.90;;;;;;5091330;28;20034;-53
2023/06/28 00:22:30;;;;;;;11.52;3.63;;;20.30;99.90;;;;;;5091120;28;20036;-57
2023/06/28 00:24:57;;;;;;;6.82;2.70;;;20.30;99.90;;;;;;5091108;28;20020;-56
2023/06/28 00:27:23;;;;;;;7.55;3.05;;;20.30;99.90;;;;;;5091704;28;20028;-55
2023/06/28 00:29:49;;;;;;;10.85;3.72;;;20.20;99.90;;;;;;5091286;28;20031;-58
2023/06/28 00:32:15;;;;;;;8.75;3.30;;;20.20;99.90;;;;;;5091451;28;20035;-57
2023/06/28 00:34:40;;;;;;;7.68;3.17;;;20.20;99.90;;;;;;5091158;28;20024;-57
2023/06/28 00:37:06;;;;;;;10.88;3.45;;;20.20;99.90;;;;;;5091286;28;20063;-55
2023/06/28 00:39:33;;;;;;;9.27;3.63;;;20.10;99.90;;;;;;5090695;28;20048;-52
2023/06/28 00:41:59;;;;;;;9.18;3.20;;;20.30;99.90;;;;;;5091393;28;20022;-56
2023/06/28 00:44:25;;;;;;;6.82;3.10;;;20.40;99.90;;;;;;5091016;28;20502;-56
2023/06/28 00:46:51;;;;;;;12.35;3.28;;;20.40;99.90;;;;;;5091593;28;20411;-55
2023/06/28 00:49:17;;;;;;;9.35;3.15;;;20.50;99.90;;;;;;5091118;28;20603;-57
2023/06/28 00:51:45;;;;;;;10.85;3.35;;;20.50;99.90;;;;;;5090897;28;20035;-57
2023/06/28 00:54:11;;;;;;;11.20;3.35;;;20.50;99.90;;;;;;5089860;28;20515;-56
2023/06/28 00:56:37;;;;;;;6.18;3.00;;;20.50;99.90;;;;;;5091106;28;20065;-54
2023/06/28 00:59:04;;;;;;;5.93;2.90;;;20.50;99.90;;;;;;5090977;28;20043;-57
2023/06/28 01:01:30;;;;;;;9.57;3.53;;;20.50;99.90;;;;;;5091331;28;20066;-56
2023/06/28 01:03:56;;;;;;;7.32;3.60;;;20.40;99.90;;;;;;5090802;28;20024;-56
2023/06/28 01:06:24;;;;;;;7.93;3.53;;;20.40;99.90;;;;;;5090617;28;20100;-57
2023/06/28 01:08:51;;;;;;;12.30;3.50;;;20.20;99.90;;;;;;5091026;28;20528;-57
2023/06/28 01:11:18;;;;;;;7.80;3.22;;;20.30;99.90;;;;;;5090918;28;20103;-56
2023/06/28 01:13:45;;;;;;;7.72;3.28;;;20.20;99.90;;;;;;5091291;28;20444;-57
2023/06/28 01:16:11;;;;;;;11.35;3.75;;;20.10;99.90;;;;;;5090841;28;20036;-56
2023/06/28 01:18:37;;;;;;;13.05;3.45;;;20.00;99.90;;;;;;5093017;28;20054;-57
2023/06/28 01:21:07;;;;;;;7.90;3.20;;;19.90;99.90;;;;;;5094459;28;20482;-57
2023/06/28 01:23:33;;;;;;;10.07;3.50;;;19.90;99.90;;;;;;5094529;28;20052;-56
2023/06/28 01:26:02;;;;;;;8.38;3.28;;;19.80;99.90;;;;;;5094758;28;20043;-57
2023/06/28 01:28:29;;;;;;;11.50;3.50;;;19.80;99.90;;;;;;5094732;28;20032;-57
2023/06/28 01:30:56;;;;;;;7.05;3.20;;;19.70;99.90;;;;;;5094529;28;20482;-57
2023/06/28 01:33:21;;;;;;;10.23;3.95;;;19.50;99.90;;;;;;5094428;28;20410;-56
2023/06/28 01:35:47;;;;;;;9.40;3.75;;;19.30;99.90;;;;;;5094443;28;20035;-57
2023/06/28 01:38:14;;;;;;;8.02;3.17;;;19.30;99.90;;;;;;5094329;28;20495;-57
2023/06/28 01:40:42;;;;;;;9.70;3.60;;;19.10;99.90;;;;;;5094242;28;20031;-57
2023/06/28 01:43:08;;;;;;;8.18;3.20;;;19.00;99.90;;;;;;5094323;28;20032;-56
2023/06/28 01:45:35;;;;;;;9.95;3.67;;;19.00;99.90;;;;;;5094217;28;20521;-57
2023/06/28 01:48:01;;;;;;;6.80;3.45;;;19.10;99.90;;;;;;5094213;28;20031;-56
2023/06/28 01:50:28;;;;;;;8.48;3.50;;;19.00;99.90;;;;;;5093974;28;20039;-54
2023/06/28 01:52:58;;;;;;;9.13;3.40;;;18.90;99.90;;;;;;5094251;28;20028;-56
2023/06/28 01:55:24;;;;;;;8.25;3.40;;;19.00;99.90;;;;;;5094042;28;20070;-57
2023/06/28 01:57:49;;;;;;;10.55;3.55;;;19.20;99.90;;;;;;5094228;28;20526;-56
2023/06/28 02:00:16;;;;;;;13.80;4.25;;;19.20;99.90;;;;;;5094054;28;20461;-57
2023/06/28 02:02:42;;;;;;;9.60;3.50;;;19.30;99.90;;;;;;5093866;28;20114;-57
2023/06/28 02:05:08;;;;;;;8.38;3.30;;;19.30;99.90;;;;;;5093547;28;20108;-56
2023/06/28 02:07:33;;;;;;;10.98;3.58;;;19.30;99.90;;;;;;5093818;28;20016;-57
2023/06/28 02:09:59;;;;;;;9.07;3.75;;;19.50;99.90;;;;;;5093711;28;20622;-56
2023/06/28 02:12:24;;;;;;;11.23;3.80;;;19.60;99.90;;;;;;5093811;28;20464;-57
2023/06/28 02:14:53;;;;;;;11.30;4.03;;;19.60;99.90;;;;;;5093681;28;20095;-57
2023/06/28 02:17:22;;;;;;;7.85;3.33;;;19.60;99.90;;;;;;5093281;28;20027;-56
2023/06/28 02:19:48;;;;;;;11.63;3.78;;;19.70;99.90;;;;;;5093632;28;20456;-53
2023/06/28 02:22:18;;;;;;;8.43;3.83;;;19.60;99.90;;;;;;5093444;28;20052;-57
2023/06/28 02:24:44;;;;;;;12.15;3.40;;;19.60;99.90;;;;;;5093585;28;20402;-57
2023/06/28 02:27:10;;;;;;;10.68;3.75;;;19.60;99.90;;;;;;5093431;28;20035;-57
2023/06/28 02:29:36;;;;;;;11.00;3.92;;;19.50;99.90;;;;;;5092812;28;20024;-55
2023/06/28 02:32:03;;;;;;;11.02;3.50;;;19.20;99.90;;;;;;5093265;28;20035;-57
2023/06/28 02:34:29;;;;;;;9.95;3.70;;;19.00;99.90;;;;;;5093288;28;20501;-52
2023/06/28 02:36:55;;;;;;;7.90;3.10;;;19.00;99.90;;;;;;5093275;28;20028;-55
2023/06/28 02:39:21;;;;;;;7.97;3.60;;;18.90;99.90;;;;;;5093109;28;20032;-55
2023/06/28 02:41:47;;;;;;;9.88;3.60;;;18.80;99.90;;;;;;5093225;28;20429;-57
2023/06/28 02:44:14;;;;;;;6.85;3.50;;;18.70;99.90;;;;;;5093051;28;20027;-58
2023/06/28 02:46:39;;;;;;;11.70;3.45;;;18.60;99.90;;;;;;5093109;28;20057;-57
2023/06/28 02:49:06;;;;;;;11.18;3.78;;;18.50;99.90;;;;;;5092588;28;20114;-57
2023/06/28 02:51:32;;;;;;;11.18;3.90;;;18.40;99.90;;;;;;5092908;28;20063;-57
2023/06/28 02:53:58;;;;;;;12.43;4.60;;;18.40;99.90;;;;;;5093030;28;20133;-57
2023/06/28 02:56:23;;;;;;;9.60;4.50;;;18.30;99.90;;;;;;5093059;28;20032;-56
2023/06/28 02:58:49;;;;;;;9.85;4.45;;;18.30;99.90;;;;;;5092631;28;20421;-57
2023/06/28 03:01:15;;;;;;;8.18;3.92;;;18.20;99.90;;;;;;5092699;28;20085;-57
2023/06/28 03:03:41;;;;;;;10.07;3.92;;;18.10;99.90;;;;;;5092437;28;20024;-56
2023/06/28 03:06:07;;;;;;;9.40;4.47;;;18.00;99.90;;;;;;5092964;28;20032;-55
2023/06/28 03:08:33;;;;;;;9.48;4.20;;;18.00;99.90;;;;;;5092796;28;20020;-55
2023/06/28 03:10:59;;;;;;;8.77;3.60;;;18.00;99.90;;;;;;5092508;28;20063;-57
2023/06/28 03:13:25;;;;;;;10.63;3.88;;;18.10;99.90;;;;;;5092519;28;20035;-57
2023/06/28 03:15:50;;;;;;;13.85;4.10;;;18.10;99.90;;;;;;5092329;28;20020;-56
2023/06/28 03:18:16;;;;;;;9.63;3.65;;;18.10;99.90;;;;;;5092148;28;20055;-56
2023/06/28 03:20:42;;;;;;;9.02;4.07;;;18.20;99.90;;;;;;5092393;28;20482;-57
2023/06/28 03:23:08;;;;;;;11.80;4.22;;;18.20;99.90;;;;;;5092223;28;20048;-56
2023/06/28 03:25:34;;;;;;;10.75;4.00;;;18.20;99.90;;;;;;5092271;28;20119;-56
2023/06/28 03:28:00;;;;;;;9.40;4.18;;;18.20;99.90;;;;;;5092108;28;20123;-56
2023/06/28 03:30:26;;;;;;;11.85;4.10;;;18.20;99.90;;;;;;5092308;28;20039;-56
2023/06/28 03:32:51;;;;;;;9.88;4.10;;;18.10;99.90;;;;;;5091944;28;20028;-57
2023/06/28 03:35:17;;;;;;;9.00;4.10;;;18.10;99.90;;;;;;5091895;28;20024;-56
2023/06/28 03:37:50;;;;;;;8.95;3.88;;;18.10;99.90;;;;;;5090899;28;20035;-57
2023/06/28 03:40:16;;;;;;;8.13;3.90;;;18.00;99.90;;;;;;5092169;28;20031;-57
2023/06/28 03:42:42;;;;;;;9.70;4.45;;;18.00;99.90;;;;;;5091132;28;20084;-56
2023/06/28 03:45:08;;;;;;;9.70;4.05;;;17.80;99.90;;;;;;5091834;28;20048;-56
2023/06/28 03:47:34;;;;;;;8.27;3.90;;;17.80;99.90;;;;;;5091435;28;20024;-56
2023/06/28 03:49:59;;;;;;;8.63;3.90;;;17.80;99.90;;;;;;5091861;28;20030;-56
2023/06/28 03:52:25;;;;;;;12.40;4.50;;;17.70;99.90;;;;;;5091934;28;20085;-57
2023/06/28 03:54:51;;;;;;;10.40;4.07;;;17.80;99.90;;;;;;5091755;28;20034;-56
2023/06/28 03:57:17;;;;;;;8.18;4.10;;;17.70;99.90;;;;;;5091702;28;20107;-56
2023/06/28 03:59:42;;;;;;;9.10;4.05;;;17.70;99.90;;;;;;5092067;28;20114;-56
2023/06/28 04:02:08;;;;;;;8.93;4.53;;;17.70;99.90;;;;;;5091271;28;20106;-56
2023/06/28 04:04:34;;;;;;;8.15;3.90;;;17.60;99.90;;;;;;5091575;28;20071;-57
2023/06/28 04:07:03;;;;;;;8.02;3.90;;;17.50;99.90;;;;;;5091973;28;20081;-57
2023/06/28 04:09:29;;;;;;;8.40;4.07;;;17.50;99.90;;;;;;5091622;28;20028;-56
2023/06/28 04:11:55;;;;;;;7.72;3.88;;;17.50;99.90;;;;;;5091566;28;20115;-56
2023/06/28 04:14:23;;;;;;;8.88;4.25;;;17.50;99.90;;;;;;5091442;28;20452;-57
2023/06/28 04:16:49;;;;;;;11.45;4.32;;;17.40;99.90;;;;;;5090797;28;20036;-55
2023/06/28 04:19:14;;;;;;;7.40;4.40;;;17.40;99.90;;;;;;5091678;28;20510;-55
2023/06/28 04:21:40;;;;;;;8.73;3.78;;;17.40;99.90;;;;;;5091538;28;20558;-50
2023/06/28 04:24:06;;;;;;;7.88;4.05;;;17.50;99.90;;;;;;5091296;28;20135;-55
2023/06/28 04:26:31;;;;;;;11.18;4.60;;;17.50;99.90;;;;;;5091111;28;20425;-58
2023/06/28 04:28:57;;;;;;;8.00;4.22;;;17.50;99.90;;;;;;5091688;28;20402;-56
2023/06/28 04:31:24;;;;;;;9.18;4.38;;;17.50;99.90;;;;;;5091064;28;20496;-57
2023/06/28 04:33:51;;;;;;;9.02;3.97;;;17.50;99.90;;;;;;5091295;28;20028;-57
2023/06/28 04:36:21;;;;;;;7.85;4.18;;;17.50;99.90;;;;;;5091360;28;20035;-56
2023/06/28 04:38:52;;;;;;;8.73;4.20;;;17.60;99.90;;;;;;5091211;28;20389;-55
2023/06/28 04:41:27;;;;;;;8.15;3.92;;;17.60;99.90;;;;;;5091107;28;20487;-54
2023/06/28 04:43:55;;;;;;;8.80;4.32;;;17.60;99.90;;;;;;5090859;28;20016;-56
2023/06/28 04:46:26;;;;;;;11.15;4.32;;;17.50;99.90;;;;;;5091200;28;20039;-56
2023/06/28 04:48:52;;;;;;;8.90;4.32;;;17.40;99.90;;;;;;5091162;28;20016;-53
2023/06/28 04:51:20;;;;;;;10.68;4.70;;;17.30;99.90;;;;;;5091044;28;20548;-57
2023/06/28 04:53:47;;;;;;;14.18;5.15;;;17.30;99.90;;;;;;5093989;28;20035;-54
2023/06/28 04:56:16;;;;;;;9.15;4.47;;;17.20;99.90;;;;;;5094810;28;20024;-56
2023/06/28 04:58:42;;;;;;;11.65;5.00;;;17.10;99.90;;;;;;5094820;28;20040;-57
2023/06/28 05:01:08;;;;;;;8.13;4.10;;;17.20;99.90;;;;;;5095152;28;20035;-53
2023/06/28 05:03:35;;;;;;;11.70;5.03;;;17.20;99.90;;;;;;5095493;28;20016;-57
2023/06/28 05:06:02;;;;;;;8.48;4.20;;;17.20;99.90;;;;;;5095036;28;20035;-56
2023/06/28 05:08:28;;;;;;;11.13;4.28;;;17.20;99.90;;;;;;5094977;28;20028;-56
2023/06/28 05:10:54;;;;;;;10.27;4.75;;;17.20;99.90;;;;;;5094759;28;20111;-57
2023/06/28 05:13:21;;;;;;;10.43;4.50;;;17.20;99.90;;;;;;5094514;28;20532;-56
2023/06/28 05:15:47;;;;;;;13.02;4.80;;;17.20;99.90;;;;;;5094825;28;20402;-56
2023/06/28 05:18:12;;;;;;;12.15;4.63;;;17.10;99.90;;;;;;5094389;28;20028;-54
2023/06/28 05:20:38;;;;;;;10.60;4.70;;;17.10;99.90;;;;;;5094840;28;20024;-54
2023/06/28 05:23:18;;;;;;;9.25;4.18;;;17.20;99.90;;;;;;5094297;28;20094;-56
2023/06/28 05:25:44;;;;;;;12.38;4.88;;;17.20;99.90;;;;;;5093441;28;20387;-47
2023/06/28 05:28:14;;;;;;;8.93;4.88;;;17.30;99.90;;;;;;5093161;28;20442;-47
2023/06/28 05:30:41;;;;;;;8.52;4.22;;;17.40;99.90;;;;;;5094527;28;20032;-52
2023/06/28 05:33:07;;;;;;;9.68;4.75;;;17.40;99.90;;;;;;5094581;28;20065;-50
2023/06/28 05:35:34;;;;;;;8.95;4.60;;;17.60;99.90;;;;;;5094519;28;20020;-54
2023/06/28 05:38:01;;;;;;;9.77;4.65;;;17.70;99.90;;;;;;5094314;28;20035;-54
2023/06/28 05:40:27;;;;;;;8.38;4.47;;;17.80;99.90;;;;;;5094624;28;20024;-54
2023/06/28 05:42:53;;;;;;;10.52;4.63;;;17.90;99.90;;;;;;5093839;28;20024;-53
2023/06/28 05:45:23;;;;;;;9.48;4.82;;;17.80;99.90;;;;;;5094166;28;20051;-55
2023/06/28 05:47:49;;;;;;;11.27;4.55;;;17.90;99.90;;;;;;5094242;28;20117;-54
2023/06/28 05:50:16;;;;;;;11.40;4.30;;;18.00;99.90;;;;;;5094069;28;20385;-51
2023/06/28 05:52:43;;;;;;;8.77;4.15;;;18.00;99.90;;;;;;5094337;28;20051;-54
2023/06/28 05:55:09;;;;;;;11.15;4.80;;;18.00;99.90;;;;;;5093962;28;20386;-52
2023/06/28 05:57:35;;;;;;;8.55;4.30;;;18.20;99.90;;;;;;5093604;28;20034;-54
2023/06/28 06:00:02;;;;;;;7.72;4.50;;;18.30;99.90;;;;;;5094092;28;20039;-53
2023/06/28 06:02:28;;;;;;;9.57;4.30;;;18.30;99.90;;;;;;5093881;28;20057;-52
2023/06/28 06:04:53;;;;;;;11.77;4.57;;;18.30;99.90;;;;;;5092632;28;20031;-56
2023/06/28 06:07:19;;;;;;;9.55;4.85;;;18.20;99.90;;;;;;5093958;28;20036;-54
2023/06/28 06:09:45;;;;;;;8.55;4.80;;;18.20;99.90;;;;;;5093553;28;20024;-55
2023/06/28 06:12:10;;;;;;;9.52;5.07;;;18.20;99.90;;;;;;5093674;28;20483;-54
2023/06/28 06:14:36;;;;;;;10.38;4.80;;;18.20;99.90;;;;;;5093399;28;20024;-54
2023/06/28 06:17:02;;;;;;;7.82;4.40;;;18.30;99.90;;;;;;5093481;28;20028;-49
2023/06/28 06:19:27;;;;;;;9.60;4.88;;;18.30;99.90;;;;;;5093530;28;20037;-57
2023/06/28 06:21:53;;;;;;;12.55;4.88;;;18.30;99.90;;;;;;5093492;28;20444;-57
2023/06/28 06:24:19;;;;;;;11.98;5.20;;;18.30;99.90;;;;;;5093371;28;20036;-57
2023/06/28 06:26:44;;;;;;;11.65;4.90;;;18.30;99.90;;;;;;5093171;28;20024;-57
2023/06/28 06:29:10;;;;;;;10.68;4.65;;;18.40;99.90;;;;;;5093441;28;20032;-56
2023/06/28 06:31:36;;;;;;;9.63;4.82;;;18.40;99.90;;;;;;5093285;28;20035;-56
2023/06/28 06:34:01;;;;;;;10.57;5.32;;;18.50;99.90;;;;;;5093286;28;20024;-57
2023/06/28 06:36:27;;;;;;;13.25;5.60;;;18.50;99.90;;;;;;5093706;28;20526;-57
2023/06/28 06:38:56;;;;;;;15.25;5.90;;;18.60;99.90;;;;;;5093081;28;20041;-57
2023/06/28 06:41:22;;;;;;;11.65;5.60;;;18.60;99.90;;;;;;5092775;28;20462;-55
2023/06/28 06:43:48;;;;;;;12.75;5.25;;;18.70;99.90;;;;;;5093418;28;20399;-58
2023/06/28 06:46:14;;;;;;;11.38;5.63;;;18.80;99.90;;;;;;5093177;28;20039;-56
2023/06/28 06:48:39;;;;;;;12.65;5.35;;;18.90;99.90;;;;;;5093043;28;20036;-57
2023/06/28 06:51:07;;;;;;;10.35;5.28;;;19.20;99.90;;;;;;5093150;28;20043;-57
2023/06/28 06:53:32;;;;;;;12.38;5.60;;;19.40;99.90;;;;;;5092818;28;20051;-57
2023/06/28 06:55:59;;;;;;;10.55;5.75;;;19.60;99.90;;;;;;5092430;28;20078;-57
2023/06/28 06:58:25;;;;;;;8.90;4.55;;;19.90;99.90;;;;;;5092991;28;20437;-56
2023/06/28 07:00:52;;;;;;;11.32;4.75;;;20.00;99.90;;;;;;5092867;28;20031;-54
2023/06/28 07:03:18;;;;;;;9.38;4.30;;;20.20;99.90;;;;;;5092682;28;20024;-57
2023/06/28 07:05:44;;;;;;;8.90;4.30;;;20.30;99.90;;;;;;5092967;28;20028;-56
2023/06/28 07:08:10;;;;;;;14.25;4.22;;;20.40;99.90;;;;;;5092744;28;20065;-57
2023/06/28 07:10:35;;;;;;;11.07;4.10;;;20.50;99.90;;;;;;5092355;28;20036;-57
2023/06/28 07:13:01;;;;;;;12.75;4.72;;;20.50;99.90;;;;;;5092560;28;20029;-57
2023/06/28 07:15:27;;;;;;;10.32;3.90;;;20.60;99.90;;;;;;5092287;28;20051;-57
2023/06/28 07:17:53;;;;;;;14.93;4.68;;;20.50;99.90;;;;;;5092334;28;20399;-58
2023/06/28 07:20:20;;;;;;;15.90;4.75;;;20.40;99.90;;;;;;5092319;28;20055;-57
2023/06/28 07:22:45;;;;;;;13.10;4.55;;;20.40;99.90;;;;;;5092460;28;20454;-57
2023/06/28 07:25:11;;;;;;;11.75;4.70;;;20.30;99.90;;;;;;5092039;28;20039;-55
2023/06/28 07:27:37;;;;;;;12.93;4.32;;;20.40;99.90;;;;;;5092305;28;20498;-57
2023/06/28 07:30:07;;;;;;;11.32;4.13;;;20.40;99.90;;;;;;5092675;28;20055;-57
2023/06/28 07:32:33;;;;;;;11.73;3.83;;;20.40;99.90;;;;;;5092286;28;20024;-55
2023/06/28 07:34:58;;;;;;;7.65;3.97;;;20.40;99.90;;;;;;5092255;28;20020;-55
2023/06/28 07:37:24;;;;;;;6.47;3.50;;;20.50;99.90;;;;;;5091964;28;20461;-57
2023/06/28 07:39:50;;;;;;;8.80;4.05;;;20.60;99.90;;;;;;5091796;28;20144;-57
2023/06/28 07:42:16;;;;;;;8.00;3.83;;;20.60;99.90;;;;;;5092135;28;20022;-56
2023/06/28 07:44:41;;;;;;;11.52;3.67;;;20.70;99.90;;;;;;5092351;28;20085;-57
2023/06/28 07:47:07;;;;;;;7.97;4.15;;;20.70;99.90;;;;;;5092074;28;20106;-56
2023/06/28 07:49:33;;;;;;;8.63;3.90;;;20.80;99.90;;;;;;5091720;28;20031;-57
2023/06/28 07:52:00;;;;;;;8.07;3.75;;;20.80;99.90;;;;;;5090550;28;20418;-57
2023/06/28 07:54:25;;;;;;;11.18;4.30;;;20.80;99.90;;;;;;5091748;28;20032;-57
2023/06/28 07:56:51;;;;;;;12.43;4.85;;;20.90;99.90;;;;;;5091678;28;20020;-57
2023/06/28 07:59:19;;;;;;;14.32;4.55;;;20.90;99.90;;;;;;5091684;28;20093;-57
2023/06/28 08:01:45;;;;;;;12.63;4.63;;;21.10;99.90;;;;;;5091738;28;20032;-54
2023/06/28 08:04:11;;;;;;;8.48;4.45;;;21.30;99.90;;;;;;5091584;28;20028;-55
2023/06/28 08:06:37;;;;;;;9.95;4.43;;;21.60;99.90;;;;;;5091428;28;20501;-57
2023/06/28 08:09:03;;;;;;;11.95;4.50;;;21.90;99.90;;;;;;5091199;28;20058;-57
2023/06/28 08:11:28;;;;;;;12.40;4.80;;;22.00;99.90;;;;;;5091937;28;20070;-57
2023/06/28 08:13:54;;;;;;;12.15;4.50;;;22.10;99.90;;;;;;5091504;28;20490;-57
2023/06/28 08:16:20;;;;;;;12.05;4.60;;;22.20;99.90;;;;;;5091534;28;20028;-57
2023/06/28 08:18:46;;;;;;;14.30;5.07;;;22.30;99.90;;;;;;5091031;28;20131;-55
2023/06/28 08:21:11;;;;;;;9.43;4.60;;;22.40;99.90;;;;;;5091032;28;20017;-58
2023/06/28 08:23:37;;;;;;;14.15;5.40;;;22.40;99.90;;;;;;5091186;28;20746;-57
2023/06/28 08:26:03;;;;;;;17.67;5.60;;;22.60;99.90;;;;;;5091767;28;20448;-56
2023/06/28 08:28:29;;;;;;;14.20;5.90;;;22.60;99.90;;;;;;5090744;28;20097;-57
2023/06/28 08:30:54;;;;;;;14.30;5.50;;;22.70;99.90;;;;;;5091453;28;20036;-57
2023/06/28 08:33:22;;;;;;;15.52;6.95;;;22.60;99.90;;;;;;5091159;28;20208;-54
2023/06/28 08:35:47;;;;;;;15.45;5.88;;;22.60;99.90;;;;;;5091168;28;20478;-57
2023/06/28 08:38:13;;;;;;;12.48;6.03;;;22.50;99.90;;;;;;5091492;28;20065;-57
2023/06/28 08:40:39;;;;;;;15.98;6.55;;;22.40;99.90;;;;;;5091158;28;20040;-57
2023/06/28 08:43:06;;;;;;;15.68;6.47;;;22.30;99.90;;;;;;5091184;28;20024;-57
2023/06/28 08:45:35;;;;;;;19.67;6.63;;;22.20;99.90;;;;;;5091084;28;20034;-57
2023/06/28 08:48:03;;;;;;;15.20;6.93;;;22.30;99.90;;;;;;5091095;28;20028;-56
2023/06/28 08:50:28;;;;;;;15.32;6.22;;;22.40;99.90;;;;;;5091248;28;20089;-57
2023/06/28 08:52:55;;;;;;;16.52;5.95;;;22.40;99.90;;;;;;5090993;28;20024;-57
2023/06/28 08:55:21;;;;;;;13.50;5.55;;;22.50;99.90;;;;;;5091023;28;20429;-58
2023/06/28 08:57:47;;;;;;;16.15;5.18;;;22.50;99.90;;;;;;5091063;28;20032;-57
2023/06/28 09:00:14;;;;;;;11.50;5.72;;;22.50;99.90;;;;;;5090886;28;20075;-57
2023/06/28 09:02:44;;;;;;;9.77;4.72;;;22.50;99.90;;;;;;5091283;28;20081;-57
2023/06/28 09:05:10;;;;;;;12.73;5.35;;;22.60;99.90;;;;;;5090534;28;20081;-58
2023/06/28 09:07:40;;;;;;;11.50;5.20;;;22.60;99.90;;;;;;5091072;28;20493;-57
2023/06/28 09:10:10;;;;;;;10.05;4.65;;;22.70;99.90;;;;;;5090915;28;20024;-57
2023/06/28 09:12:37;;;;;;;12.00;5.57;;;22.80;99.90;;;;;;5091041;28;20036;-57
2023/06/28 09:15:06;;;;;;;11.48;5.18;;;23.00;99.90;;;;;;5090951;28;20077;-57
2023/06/28 09:17:32;;;;;;;13.00;5.18;;;23.10;99.90;;;;;;5090586;28;20109;-57
2023/06/28 09:20:14;;;;;;;15.32;5.00;;;23.30;99.90;;;;;;5090837;28;20121;-57
2023/06/28 09:22:39;;;;;;;9.15;4.38;;;23.60;99.90;;;;;;5090616;28;20135;-57
2023/06/28 09:25:05;;;;;;;9.65;4.60;;;23.80;99.90;;;;;;5090903;28;20111;-57
2023/06/28 09:27:31;;;;;;;8.00;4.45;;;24.00;99.90;;;;;;5090665;28;20024;-57
2023/06/28 09:30:00;;;;;;;10.48;4.18;;;24.00;99.90;;;;;;5091156;28;20016;-57
2023/06/28 09:32:38;;;;;;;11.63;4.68;;;24.10;99.90;;;;;;5090666;28;20146;-57
2023/06/28 09:35:09;;;;;;;9.20;3.97;;;24.00;99.90;;;;;;5090392;28;20017;-57
2023/06/28 09:37:39;;;;;;;9.25;4.05;;;24.00;99.90;;;;;;5090815;28;20035;-57
2023/06/28 09:40:06;;;;;;;9.43;4.13;;;24.30;99.90;;;;;;5093438;28;20524;-57
2023/06/28 09:42:32;;;;;;;11.23;4.10;;;24.20;99.90;;;;;;5094422;28;20028;-57
2023/06/28 09:44:58;;;;;;;6.97;3.60;;;24.20;99.90;;;;;;5094182;28;20406;-57
2023/06/28 09:47:32;;;;;;;8.02;3.60;;;24.20;99.90;;;;;;5094422;28;20026;-57
2023/06/28 09:50:01;;;;;;;9.98;3.80;;;24.20;99.90;;;;;;5093933;28;20024;-57
2023/06/28 09:52:27;;;;;;;9.35;3.90;;;24.20;99.90;;;;;;5094231;28;20025;-57
2023/06/28 09:54:56;;;;;;;7.28;3.55;;;24.20;99.90;;;;;;5094156;28;20028;-56
2023/06/28 09:57:23;;;;;;;9.77;4.07;;;24.10;99.90;;;;;;5094198;28;20023;-56
2023/06/28 09:59:52;;;;;;;6.38;3.50;;;24.10;99.90;;;;;;5094395;28;20035;-57
2023/06/28 10:02:22;;;;;;;7.82;4.00;;;24.00;99.90;;;;;;5093847;28;20035;-57
2023/06/28 10:04:50;;;;;;;6.68;3.72;;;24.00;99.90;;;;;;5093502;28;20065;-57
2023/06/28 10:07:18;;;;;;;8.25;3.75;;;24.10;99.90;;;;;;5094188;28;20027;-57
2023/06/28 10:09:44;;;;;;;8.98;3.65;;;24.10;99.90;;;;;;5093833;28;20101;-57
2023/06/28 10:12:21;;;;;;;7.05;2.95;;;24.30;99.90;;;;;;5093779;28;20032;-57
2023/06/28 10:14:55;;;;;;;9.70;3.20;;;24.30;99.90;;;;;;5093994;28;20815;-57
2023/06/28 10:17:22;;;;;;;8.30;3.30;;;24.20;99.90;;;;;;5093356;28;20058;-56
2023/06/28 10:19:48;;;;;;;9.45;3.33;;;24.30;99.90;;;;;;5093509;28;20051;-57
2023/06/28 10:22:15;;;;;;;8.25;3.22;;;24.40;99.90;;;;;;5093362;28;20035;-57
2023/06/28 10:24:42;;;;;;;6.97;3.20;;;24.50;99.90;;;;;;5093404;28;20528;-57
2023/06/28 10:27:09;;;;;;;4.75;2.95;;;24.50;99.90;;;;;;5093954;28;20035;-57
2023/06/28 10:29:36;;;;;;;6.68;3.20;;;24.60;99.90;;;;;;5093424;28;20501;-57
2023/06/28 10:32:02;;;;;;;5.80;3.15;;;24.60;99.90;;;;;;5092970;28;20028;-57
2023/06/28 10:34:28;;;;;;;8.13;3.30;;;24.70;99.90;;;;;;5093706;28;20115;-57
2023/06/28 10:36:56;;;;;;;6.05;3.03;;;25.10;99.90;;;;;;5093271;28;20085;-57
2023/06/28 10:39:22;;;;;;;6.22;2.88;;;25.30;99.90;;;;;;5093063;28;20032;-55
2023/06/28 10:41:55;;;;;;;6.95;2.70;;;25.40;99.90;;;;;;5093342;28;20393;-57
2023/06/28 10:44:21;;;;;;;7.05;3.08;;;25.50;99.90;;;;;;5093179;28;20035;-57
2023/06/28 10:46:50;;;;;;;6.93;3.00;;;25.50;99.90;;;;;;5093154;28;20378;-58
2023/06/28 10:49:16;;;;;;;5.75;2.92;;;25.60;99.90;;;;;;5093004;28;20138;-57
2023/06/28 10:51:47;;;;;;;5.47;2.88;;;25.70;99.90;;;;;;5092475;28;20091;-57
2023/06/28 10:54:14;;;;;;;8.82;3.08;;;25.70;99.90;;;;;;5093417;28;20545;-56
2023/06/28 10:56:50;;;;;;;7.43;2.58;;;25.70;99.90;;;;;;5092877;28;20028;-56
2023/06/28 10:59:16;;;;;;;6.50;2.70;;;25.70;99.90;;;;;;5092645;28;20044;-57
2023/06/28 11:01:56;;;;;;;6.35;2.97;;;25.90;99.90;;;;;;5092595;28;20020;-57
2023/06/28 11:04:25;;;;;;;5.70;2.80;;;26.10;99.90;;;;;;5091513;28;20383;-56
2023/06/28 11:07:06;;;;;;;5.90;2.80;;;26.40;99.90;;;;;;5093239;28;20024;-57
2023/06/28 11:09:32;;;;;;;8.02;3.15;;;26.30;99.90;;;;;;5092794;28;20031;-56
2023/06/28 11:11:59;;;;;;;5.43;3.03;;;26.10;99.90;;;;;;5092629;28;20024;-57
2023/06/28 11:14:30;;;;;;;7.00;2.90;;;25.90;99.90;;;;;;5092493;28;20500;-52
2023/06/28 11:17:14;;;;;;;6.22;3.05;;;25.90;99.90;;;;;;5092010;28;20032;-57
2023/06/28 11:19:44;;;;;;;7.93;3.20;;;25.90;99.90;;;;;;5092605;28;20043;-58
2023/06/28 11:22:11;;;;;;;8.70;2.85;;;25.90;99.90;;;;;;5092288;28;20101;-57
2023/06/28 11:24:37;;;;;;;7.85;3.25;;;25.90;99.90;;;;;;5092755;28;20448;-57
2023/06/28 11:27:03;;;;;;;8.10;2.90;;;25.90;99.90;;;;;;5092318;28;20024;-57
2023/06/28 11:29:29;;;;;;;9.25;3.25;;;25.90;99.90;;;;;;5092295;28;20391;-57
2023/06/28 11:31:58;;;;;;;6.65;3.08;;;26.00;99.90;;;;;;5091905;28;20016;-57
2023/06/28 11:34:25;;;;;;;8.35;3.15;;;26.00;99.90;;;;;;5092267;28;20024;-57
2023/06/28 11:36:52;;;;;;;9.88;4.28;;;26.20;99.90;;;;;;5092118;28;20054;-58
2023/06/28 11:39:19;;;;;;;9.20;4.53;;;26.20;99.90;;;;;;5092088;28;20406;-57
2023/06/28 11:41:45;;;;;;;6.40;4.00;;;26.30;99.90;;;;;;5092457;28;20020;-57
2023/06/28 11:44:13;;;;;;;7.70;3.88;;;26.30;99.90;;;;;;5091797;28;20027;-58
2023/06/28 11:46:40;;;;;;;6.65;3.08;;;26.30;99.90;;;;;;5092014;28;20023;-57
2023/06/28 11:49:07;;;;;;;6.93;3.13;;;26.30;99.90;;;;;;5091994;28;20401;-57
2023/06/28 11:51:34;;;;;;;9.30;3.20;;;26.40;99.90;;;;;;5092195;28;20021;-57
2023/06/28 11:53:59;;;;;;;10.95;3.15;;;26.60;99.90;;;;;;5091753;28;20083;-56
2023/06/28 11:56:44;;;;;;;7.80;2.97;;;26.90;99.90;;;;;;5091862;28;20028;-57
2023/06/28 11:59:24;;;;;;;8.65;3.72;;;27.00;99.90;;;;;;5091375;28;20114;-57
2023/06/28 12:02:05;;;;;;;6.38;3.10;;;27.00;99.90;;;;;;5091326;28;20036;-57
2023/06/28 12:04:32;;;;;;;7.22;3.22;;;26.90;99.90;;;;;;5091564;28;20044;-57
2023/06/28 12:07:01;;;;;;;9.57;3.13;;;27.10;99.90;;;;;;5091651;28;20074;-50
2023/06/28 12:09:31;;;;;;;8.10;3.30;;;27.30;99.90;;;;;;5091900;28;20035;-55
2023/06/28 12:11:58;;;;;;;12.40;4.07;;;27.00;99.90;;;;;;5091385;28;20016;-54
2023/06/28 12:14:25;;;;;;;10.13;3.88;;;27.00;99.90;;;;;;5091156;28;20482;-57
2023/06/28 12:16:51;;;;;;;9.15;4.13;;;26.90;99.90;;;;;;5091464;28;20028;-57
2023/06/28 12:19:18;;;;;;;9.93;4.10;;;26.80;99.90;;;;;;5090377;28;20040;-57
2023/06/28 12:21:44;;;;;;;12.10;4.05;;;26.50;99.90;;;;;;5091426;28;20028;-57
2023/06/28 12:24:16;;;;;;;10.48;4.40;;;26.50;99.90;;;;;;5091196;28;20031;-57
2023/06/28 12:26:47;;;;;;;10.93;4.10;;;26.80;99.90;;;;;;5091427;28;20024;-57
2023/06/28 12:29:13;;;;;;;10.35;3.67;;;26.90;99.90;;;;;;5091306;28;20100;-56
2023/06/28 12:31:43;;;;;;;12.82;3.90;;;26.80;99.90;;;;;;5091416;28;20099;-57
2023/06/28 12:34:08;;;;;;;7.57;3.80;;;26.70;99.90;;;;;;5091178;28;20103;-57
2023/06/28 12:36:34;;;;;;;13.35;3.88;;;26.60;99.90;;;;;;5091216;28;20526;-57
2023/06/28 12:39:00;;;;;;;9.20;3.63;;;26.50;99.90;;;;;;5091197;28;20534;-57
2023/06/28 12:41:26;;;;;;;13.43;3.97;;;26.40;99.90;;;;;;5090999;28;20035;-58